Terminal Aerodrome Forecast
Issued by NWS Green Bay, WI

Home | Current Version | Previous Version | Text Only | Print | Product List | Glossary Off
Versions: 1 2 3 4 5 6 7 8 9 10 11 12 13 14 15 16 17 18 19 20 21 22 23 24 25 26 27 28 29 30 31 32 33 34 35 36 37 38 39 40 41 42 43 44 45 46 47 48 49 50

000
FTUS43 KGRB 191100
TAFGRB
TAF
KGRB 191126Z 1912/2012 20004KT 6SM BR SCT005 SCT012
      TEMPO 1912/1914 3SM BR BKN005 OVC012
     FM191400 22006KT 6SM BR SCT012 BKN020
     FM191800 25008KT P6SM SCT025 BKN035
      TEMPO 1919/1923 2SM SHRA OVC025
     FM192300 29006KT P6SM BKN040
     FM200400 30003KT 3SM BR SCT008 BKN050
     FM200700 00000KT 1SM BR BKN008=

USA.gov is the U.S. government's official web portal to all federal, state and local government web resources and services.